Time;durP1;ratioP1;P1;durP2;ratioP2;P2;SDS_P1;SDS_P2;PMS_P1;PMS_P2;Temp;Humidity;BMP_temperature;BMP_pressure;BME280_temperature;BME280_humidity;BME280_pressure;Samples;Min_cycle;Max_cycle;Signal;HPM_P1;HPM_P2
2023/06/02 02:43:41;;;;;;;12.40;5.00;;;;;;;13.08;77.20;98816.70;107004;1301;545815;-46
2023/06/02 02:46:06;;;;;;;13.80;4.30;;;;;;;13.11;75.94;98819.86;107566;1311;22223;-47
2023/06/02 02:48:32;;;;;;;18.00;4.30;;;;;;;13.11;75.97;98820.05;107576;1311;22453;-49
2023/06/02 02:50:58;;;;;;;12.70;4.80;;;;;;;13.08;76.50;98818.48;107560;1311;23216;-50
2023/06/02 02:53:24;;;;;;;16.40;5.30;;;;;;;12.96;77.47;98818.83;107529;1311;22265;-45
2023/06/02 02:55:51;;;;;;;12.10;4.60;;;;;;;12.90;78.04;98821.16;107567;1311;22964;-45
2023/06/02 02:58:18;;;;;;;20.70;4.50;;;;;;;12.93;77.12;98816.73;107834;1307;168729;-45
2023/06/02 03:00:45;;;;;;;9.00;4.10;;;;;;;12.96;76.24;98818.45;107992;1307;22280;-47
2023/06/02 03:03:11;;;;;;;9.60;4.40;;;;;;;12.95;76.73;98824.14;108029;1307;22528;-45
2023/06/02 03:05:37;;;;;;;9.00;4.00;;;;;;;12.89;77.97;98823.02;108018;1307;22865;-46
2023/06/02 03:08:03;;;;;;;15.70;4.30;;;;;;;12.87;77.96;98825.63;108004;1307;22236;-45
2023/06/02 03:10:29;;;;;;;11.80;4.80;;;;;;;12.86;77.61;98824.83;108040;1307;22408;-50
2023/06/02 03:12:54;;;;;;;14.30;4.70;;;;;;;12.78;78.34;98824.99;108016;1307;23151;-44
2023/06/02 03:15:20;;;;;;;12.70;4.10;;;;;;;12.76;78.30;98827.66;107999;1307;22880;-46
2023/06/02 03:17:45;;;;;;;12.80;4.90;;;;;;;12.79;78.45;98833.05;108004;1307;22254;-48
2023/06/02 03:20:11;;;;;;;8.80;4.10;;;;;;;12.81;78.45;98829.57;108014;1307;22574;-47
2023/06/02 03:22:37;;;;;;;15.30;4.50;;;;;;;12.80;77.82;98834.05;108011;1307;22219;-45
2023/06/02 03:25:03;;;;;;;13.70;5.10;;;;;;;12.72;78.30;98832.51;108008;1307;22581;-47
2023/06/02 03:27:28;;;;;;;12.00;4.50;;;;;;;12.67;78.83;98834.90;108009;1307;23340;-46
2023/06/02 03:29:53;;;;;;;12.30;4.70;;;;;;;12.67;77.98;98837.41;107996;1307;22235;-45
2023/06/02 03:32:19;;;;;;;9.20;4.30;;;;;;;12.62;78.08;98832.13;107984;1307;22723;-50
2023/06/02 03:34:44;;;;;;;13.50;5.00;;;;;;;12.60;77.64;98838.58;108004;1307;22226;-46
2023/06/02 03:37:11;;;;;;;9.60;4.50;;;;;;;12.50;79.09;98838.05;108001;1302;22240;-48
2023/06/02 03:39:38;;;;;;;10.40;4.60;;;;;;;12.49;78.71;98839.39;108033;1307;23340;-46
2023/06/02 03:42:03;;;;;;;10.20;5.10;;;;;;;12.46;78.98;98839.76;107993;1307;22236;-47
2023/06/02 03:44:29;;;;;;;9.90;4.40;;;;;;;12.44;78.41;98837.25;108018;1307;22354;-48
2023/06/02 03:46:54;;;;;;;12.80;4.70;;;;;;;12.39;79.76;98843.08;108002;1307;22460;-47
2023/06/02 03:49:20;;;;;;;12.80;4.80;;;;;;;12.42;78.60;98853.41;108007;1307;22227;-51
2023/06/02 03:51:46;;;;;;;15.10;5.20;;;;;;;12.43;78.33;98854.27;108017;1307;23015;-49
2023/06/02 03:54:12;;;;;;;12.90;5.30;;;;;;;12.40;78.89;98854.45;107982;1307;22224;-49
2023/06/02 03:56:37;;;;;;;10.50;4.40;;;;;;;12.38;79.07;98858.61;107994;1307;22537;-48
2023/06/02 03:59:03;;;;;;;11.70;5.00;;;;;;;12.43;78.22;98860.55;107965;1307;22217;-44
2023/06/02 04:01:28;;;;;;;14.90;5.00;;;;;;;12.42;78.70;98860.58;107972;1307;22796;-48
2023/06/02 04:03:54;;;;;;;11.50;5.00;;;;;;;12.47;77.73;98861.52;107976;1307;22266;-47
2023/06/02 04:06:19;;;;;;;11.40;5.20;;;;;;;12.46;78.03;98867.70;107970;1307;22924;-48
2023/06/02 04:08:47;;;;;;;12.00;4.80;;;;;;;12.47;77.73;98870.44;107967;1307;22500;-47
2023/06/02 04:11:13;;;;;;;10.70;4.50;;;;;;;12.44;78.66;98872.06;107988;1307;22257;-47
2023/06/02 04:13:39;;;;;;;14.40;4.90;;;;;;;12.47;78.59;98871.55;107975;1307;22949;-52
2023/06/02 04:16:04;;;;;;;18.70;4.90;;;;;;;12.49;79.00;98872.27;107365;1307;23362;-43
2023/06/02 04:18:31;;;;;;;13.60;5.50;;;;;;;12.59;77.83;98876.45;107082;1307;22733;-47
2023/06/02 04:20:57;;;;;;;12.80;4.40;;;;;;;12.68;77.74;98878.81;107983;1307;22253;-48
2023/06/02 04:23:22;;;;;;;15.90;5.40;;;;;;;12.73;77.79;98879.41;107985;1307;22492;-47
2023/06/02 04:25:48;;;;;;;12.40;4.80;;;;;;;12.83;77.13;98875.71;107987;1307;22288;-48
2023/06/02 04:28:13;;;;;;;19.50;5.10;;;;;;;12.87;77.88;98876.44;107981;1307;22301;-49
2023/06/02 04:30:39;;;;;;;9.60;4.20;;;;;;;12.97;77.09;98876.63;107959;1307;22426;-49
2023/06/02 04:33:05;;;;;;;12.20;4.50;;;;;;;13.02;76.36;98880.11;107991;1307;22227;-47
2023/06/02 04:35:30;;;;;;;10.50;4.90;;;;;;;13.04;76.26;98884.20;107994;1307;23503;-48
2023/06/02 04:37:56;;;;;;;13.60;4.50;;;;;;;13.00;76.66;98886.08;107982;1307;22257;-47
2023/06/02 04:40:21;;;;;;;12.20;4.60;;;;;;;13.06;76.35;98884.24;107989;1307;22994;-46
2023/06/02 04:42:47;;;;;;;13.30;4.30;;;;;;;13.07;76.17;98884.90;107950;1307;22420;-45
2023/06/02 04:45:12;;;;;;;9.20;4.80;;;;;;;13.14;75.71;98884.90;107945;1307;23326;-46
2023/06/02 04:47:41;;;;;;;12.40;4.80;;;;;;;13.18;75.78;98884.45;107975;1307;22281;-48
2023/06/02 04:50:09;;;;;;;12.50;5.30;;;;;;;13.20;76.22;98887.50;107954;1307;22413;-47
2023/06/02 04:52:43;;;;;;;12.80;5.60;;;;;;;13.22;75.54;98892.04;107962;1307;22400;-47
2023/06/02 04:55:11;;;;;;;13.40;5.50;;;;;;;13.24;75.29;98891.73;107973;1307;23021;-46
2023/06/02 04:57:37;;;;;;;11.80;5.60;;;;;;;13.30;74.97;98892.96;107966;1307;22327;-48
2023/06/02 05:00:04;;;;;;;12.00;5.60;;;;;;;13.27;75.29;98899.67;107967;1307;22249;-48
2023/06/02 05:02:30;;;;;;;18.30;6.40;;;;;;;13.34;74.50;98897.70;107962;1307;22218;-49
2023/06/02 05:04:55;;;;;;;15.00;5.60;;;;;;;13.36;75.08;98900.40;107970;1307;23296;-46
2023/06/02 05:07:21;;;;;;;10.90;5.30;;;;;;;13.41;75.15;98897.02;107945;1307;22650;-48
2023/06/02 05:09:47;;;;;;;15.00;5.80;;;;;;;13.50;74.89;98900.98;107987;1307;22238;-46
2023/06/02 05:12:12;;;;;;;20.30;5.80;;;;;;;13.52;74.84;98897.13;107940;1307;22315;-46
2023/06/02 05:14:37;;;;;;;17.80;5.70;;;;;;;13.63;74.21;98899.66;107950;1307;22224;-50
2023/06/02 05:17:04;;;;;;;17.00;5.70;;;;;;;13.72;74.00;98902.70;107977;1307;22858;-48
2023/06/02 05:19:30;;;;;;;15.20;5.30;;;;;;;13.80;73.73;98901.70;107991;1307;22398;-46
2023/06/02 05:21:55;;;;;;;20.70;6.20;;;;;;;13.91;73.58;98906.06;107975;1307;22565;-50
2023/06/02 05:24:20;;;;;;;16.00;5.20;;;;;;;14.06;73.03;98907.38;107970;1307;23075;-47
2023/06/02 05:26:45;;;;;;;12.60;5.10;;;;;;;14.13;72.82;98910.05;107977;1307;22298;-49
2023/06/02 05:29:11;;;;;;;14.80;4.90;;;;;;;14.19;72.62;98913.46;107967;1307;22227;-46
2023/06/02 05:31:37;;;;;;;11.60;5.40;;;;;;;14.23;72.21;98911.05;107974;1307;22987;-47
2023/06/02 05:34:02;;;;;;;11.90;5.50;;;;;;;14.16;72.55;98910.65;107951;1307;22218;-48
2023/06/02 05:36:28;;;;;;;13.30;5.00;;;;;;;14.19;72.77;98911.52;107960;1307;22455;-47
2023/06/02 05:38:53;;;;;;;11.60;5.20;;;;;;;14.20;72.89;98908.11;107972;1307;22229;-48
2023/06/02 05:41:19;;;;;;;11.60;5.40;;;;;;;14.21;72.61;98913.11;107945;1307;22251;-47
2023/06/02 05:43:44;;;;;;;17.10;5.40;;;;;;;14.25;72.42;98913.91;107942;1307;22455;-45
2023/06/02 05:46:10;;;;;;;11.30;5.60;;;;;;;14.32;72.04;98917.73;107945;1307;22440;-45
2023/06/02 05:48:35;;;;;;;12.00;5.00;;;;;;;14.39;71.06;98919.52;107956;1307;22252;-47
2023/06/02 05:51:00;;;;;;;11.70;5.40;;;;;;;14.31;71.53;98918.20;107969;1307;22249;-50
2023/06/02 05:53:25;;;;;;;16.80;6.00;;;;;;;14.20;72.01;98919.57;107978;1307;24390;-49
2023/06/02 05:55:51;;;;;;;24.00;5.80;;;;;;;14.15;72.72;98924.35;107955;1307;23218;-50
2023/06/02 05:58:18;;;;;;;15.50;5.20;;;;;;;14.13;73.44;98929.55;107970;1307;22322;-50
2023/06/02 06:00:43;;;;;;;12.60;5.80;;;;;;;14.15;72.67;98931.52;107951;1307;22204;-47
2023/06/02 06:03:08;;;;;;;12.90;5.40;;;;;;;14.20;72.37;98933.52;107944;1307;22215;-47
2023/06/02 06:05:34;;;;;;;12.40;5.50;;;;;;;14.11;73.31;98931.72;107971;1307;22998;-50
2023/06/02 06:07:59;;;;;;;10.00;5.50;;;;;;;14.01;73.89;98930.33;107955;1307;22474;-45
2023/06/02 06:10:24;;;;;;;10.90;5.50;;;;;;;14.09;73.92;98929.69;107949;1307;22260;-47
2023/06/02 06:12:50;;;;;;;14.10;5.00;;;;;;;14.19;73.66;98929.00;107972;1307;22543;-47
2023/06/02 06:15:15;;;;;;;13.50;5.70;;;;;;;14.31;72.93;98931.63;107990;1307;22372;-46
2023/06/02 06:17:49;;;;;;;16.50;6.10;;;;;;;14.39;72.65;98929.92;108007;1307;22214;-48
2023/06/02 06:20:15;;;;;;;9.20;5.00;;;;;;;14.43;72.83;98934.86;107985;1307;22321;-50
2023/06/02 06:22:41;;;;;;;7.50;4.40;;;;;;;14.49;71.85;98934.43;108016;1307;22203;-47
2023/06/02 06:25:07;;;;;;;17.20;4.90;;;;;;;14.40;71.74;98935.48;108001;1307;22320;-48
2023/06/02 06:27:32;;;;;;;14.30;5.50;;;;;;;14.32;72.36;98938.36;108006;1307;22196;-47
2023/06/02 06:29:58;;;;;;;13.10;5.00;;;;;;;14.32;72.36;98940.88;107989;1307;22410;-47
2023/06/02 06:32:23;;;;;;;13.20;4.80;;;;;;;14.19;73.31;98943.09;108020;1307;22239;-48
2023/06/02 06:34:48;;;;;;;18.50;5.00;;;;;;;14.20;73.38;98940.54;108004;1307;23242;-47
2023/06/02 06:37:13;;;;;;;13.50;5.40;;;;;;;14.18;73.67;98941.56;108020;1288;22218;-48
2023/06/02 06:39:39;;;;;;;13.60;5.20;;;;;;;14.21;73.26;98942.90;107995;1307;22264;-51
2023/06/02 06:42:04;;;;;;;16.50;4.80;;;;;;;14.14;73.41;98951.20;107994;1307;22235;-47
2023/06/02 06:44:30;;;;;;;11.60;5.50;;;;;;;14.12;72.92;98954.52;107997;1307;22969;-46
2023/06/02 06:46:55;;;;;;;16.70;5.70;;;;;;;13.96;73.73;98959.45;108004;1307;22218;-47
2023/06/02 06:49:20;;;;;;;18.20;6.60;;;;;;;13.83;75.14;98963.20;107998;1307;22420;-48
2023/06/02 06:51:46;;;;;;;18.50;5.80;;;;;;;13.74;75.56;98973.56;108029;1307;22421;-50
2023/06/02 06:54:11;;;;;;;16.00;5.70;;;;;;;13.72;75.66;98973.00;108000;1307;22231;-48
2023/06/02 06:56:38;;;;;;;7.70;5.50;;;;;;;13.66;75.68;98978.52;107987;1307;23152;-45
2023/06/02 06:59:03;;;;;;;10.30;5.70;;;;;;;13.65;75.65;98975.22;107994;1307;22787;-45
2023/06/02 07:01:29;;;;;;;9.10;5.70;;;;;;;13.64;75.54;98978.17;108014;1307;23091;-46
2023/06/02 07:03:54;;;;;;;10.70;5.60;;;;;;;13.63;75.68;98981.59;108006;1307;22177;-45
2023/06/02 07:06:20;;;;;;;12.70;5.50;;;;;;;13.63;76.04;98982.64;107988;1307;23243;-47
2023/06/02 07:08:45;;;;;;;13.40;6.10;;;;;;;13.74;75.01;98985.20;108011;1307;22202;-47
2023/06/02 07:11:11;;;;;;;13.60;5.10;;;;;;;13.78;75.04;98986.80;108012;1307;23165;-50
2023/06/02 07:13:38;;;;;;;12.90;5.50;;;;;;;13.78;75.11;98987.52;108007;1307;22233;-46
2023/06/02 07:16:05;;;;;;;8.80;4.20;;;;;;;13.84;74.65;98988.36;108030;1307;22385;-48
2023/06/02 07:18:30;;;;;;;11.00;4.40;;;;;;;13.89;73.63;98992.58;108006;1307;22470;-48
2023/06/02 07:20:55;;;;;;;9.30;5.00;;;;;;;13.83;73.49;98990.14;108013;1307;23011;-51
2023/06/02 07:23:20;;;;;;;16.90;4.90;;;;;;;13.89;73.24;98992.53;108022;1307;22248;-47
2023/06/02 07:25:46;;;;;;;9.70;4.60;;;;;;;13.83;73.74;98994.55;107998;1307;23344;-47
2023/06/02 07:28:11;;;;;;;11.10;5.30;;;;;;;13.80;73.75;98994.44;108004;1307;22211;-50
2023/06/02 07:30:36;;;;;;;10.50;5.10;;;;;;;13.76;74.41;98997.21;108006;1307;22439;-49
2023/06/02 07:33:02;;;;;;;17.20;5.60;;;;;;;13.81;74.02;98995.95;108027;1307;22322;-46
2023/06/02 07:35:27;;;;;;;16.00;5.10;;;;;;;13.91;73.76;99001.08;108046;1307;22319;-51
2023/06/02 07:37:53;;;;;;;8.20;4.50;;;;;;;14.05;72.41;99004.27;108008;1307;22235;-48
2023/06/02 07:40:19;;;;;;;9.70;4.90;;;;;;;14.00;72.84;99007.05;108016;1307;23051;-47
2023/06/02 07:42:46;;;;;;;9.80;4.70;;;;;;;13.99;73.28;99007.30;108030;1307;22499;-50
2023/06/02 07:45:11;;;;;;;8.60;5.10;;;;;;;14.10;72.38;99007.40;108028;1307;22213;-48
2023/06/02 07:47:36;;;;;;;8.50;4.30;;;;;;;14.17;71.61;99006.13;108020;1307;23046;-48
2023/06/02 07:50:02;;;;;;;10.00;5.20;;;;;;;14.27;71.12;99005.94;108022;1306;23163;-52
2023/06/02 07:52:27;;;;;;;8.30;4.40;;;;;;;14.37;70.84;99002.23;108017;1307;23045;-50
2023/06/02 07:54:53;;;;;;;9.90;4.30;;;;;;;14.56;70.33;99004.85;108023;1307;22250;-47
2023/06/02 07:57:18;;;;;;;9.40;4.00;;;;;;;14.69;69.36;99008.42;108016;1306;23093;-49
2023/06/02 07:59:44;;;;;;;12.40;4.00;;;;;;;14.75;68.69;99010.95;107983;1307;23400;-48
2023/06/02 08:02:09;;;;;;;9.60;3.00;;;;;;;14.74;67.99;99014.08;108032;1307;23286;-46
2023/06/02 08:04:35;;;;;;;12.40;3.30;;;;;;;14.73;67.74;99010.07;108019;1307;22216;-47
2023/06/02 08:07:00;;;;;;;13.30;3.10;;;;;;;14.78;67.10;99010.96;108029;1307;22221;-52
2023/06/02 08:09:26;;;;;;;5.00;2.40;;;;;;;14.82;66.61;99012.05;108043;1285;22378;-50
2023/06/02 08:11:51;;;;;;;6.30;2.80;;;;;;;14.83;66.25;99012.63;108018;1307;22397;-48
2023/06/02 08:14:17;;;;;;;7.90;2.50;;;;;;;14.85;65.90;99018.50;108032;1307;23075;-46
2023/06/02 08:16:42;;;;;;;27.50;3.10;;;;;;;14.82;65.99;99018.19;108045;1307;23037;-48
2023/06/02 08:19:08;;;;;;;13.70;2.80;;;;;;;14.77;66.26;99023.36;108025;1307;22210;-46
2023/06/02 08:21:33;;;;;;;15.00;2.70;;;;;;;14.62;66.59;99025.77;108004;1307;22288;-49
2023/06/02 08:24:00;;;;;;;5.40;2.20;;;;;;;14.49;67.26;99032.35;107986;1307;22348;-49
2023/06/02 08:26:26;;;;;;;19.80;3.30;;;;;;;14.45;67.72;99036.52;108025;1307;22226;-50
2023/06/02 08:28:53;;;;;;;164.10;10.90;;;;;;;14.43;68.20;99038.61;107998;1307;22222;-49
2023/06/02 08:31:22;;;;;;;18.60;2.80;;;;;;;14.46;68.21;99038.77;108014;1307;22273;-48
2023/06/02 08:33:52;;;;;;;14.50;2.80;;;;;;;14.51;67.72;99042.02;108019;1307;22109;-50
2023/06/02 08:36:19;;;;;;;9.50;2.60;;;;;;;14.46;67.19;99048.46;108013;1307;22403;-46
2023/06/02 08:38:45;;;;;;;;;;;;;;;14.34;66.64;99052.54;108052;1307;22913;-48
2023/06/02 08:41:12;;;;;;;5.90;2.30;;;;;;;14.41;66.31;99059.21;108029;1307;22407;-47
2023/06/02 08:43:37;;;;;;;10.80;2.80;;;;;;;14.46;65.47;99055.84;108055;1307;22270;-48
2023/06/02 08:46:04;;;;;;;9.10;2.90;;;;;;;14.51;65.27;99057.21;108003;1307;23414;-46
2023/06/02 08:48:30;;;;;;;8.50;2.50;;;;;;;14.61;65.05;99061.13;108034;1307;22223;-48
2023/06/02 08:50:58;;;;;;;21.10;3.20;;;;;;;14.59;64.67;99065.12;108049;1307;22444;-48
2023/06/02 08:53:24;;;;;;;12.10;2.60;;;;;;;14.54;64.38;99065.98;108027;1307;22914;-48
2023/06/02 08:55:50;;;;;;;11.20;2.80;;;;;;;14.47;64.09;99070.73;108013;1307;22314;-47
2023/06/02 08:58:15;;;;;;;6.60;2.30;;;;;;;14.37;64.22;99072.91;108034;1307;23071;-49
2023/06/02 09:00:41;;;;;;;7.10;2.70;;;;;;;14.36;64.29;99078.80;108020;1307;22181;-48
2023/06/02 09:03:07;;;;;;;8.60;2.60;;;;;;;14.25;64.76;99083.48;108015;1307;22396;-48
2023/06/02 09:05:33;;;;;;;10.60;2.40;;;;;;;14.31;64.73;99085.73;107787;1292;22265;-46
2023/06/02 09:08:10;;;;;;;5.20;2.30;;;;;;;14.24;64.87;99085.51;108042;1307;22237;-47
2023/06/02 09:10:42;;;;;;;10.90;3.00;;;;;;;14.27;64.67;99083.71;108018;1307;22380;-46
2023/06/02 09:13:27;;;;;;;16.30;2.90;;;;;;;14.26;64.80;99087.30;108016;1307;22906;-46
2023/06/02 09:15:59;;;;;;;9.60;2.80;;;;;;;14.19;65.17;99089.79;108008;1307;22865;-48
2023/06/02 09:18:24;;;;;;;12.10;3.30;;;;;;;14.15;65.49;99086.34;108018;1307;22219;-46
2023/06/02 09:20:50;;;;;;;10.20;3.40;;;;;;;14.15;65.65;99086.14;108002;1307;22904;-48
2023/06/02 09:23:16;;;;;;;14.60;3.30;;;;;;;14.18;65.73;99085.21;108019;1307;22255;-45
2023/06/02 09:25:43;;;;;;;7.50;3.10;;;;;;;14.16;66.18;99090.85;108015;1307;22615;-45
2023/06/02 09:28:09;;;;;;;10.20;3.70;;;;;;;14.12;66.85;99093.25;108003;1307;22248;-46
2023/06/02 09:30:35;;;;;;;8.60;3.60;;;;;;;14.11;67.02;99096.17;108030;1307;22268;-45
2023/06/02 09:33:06;;;;;;;6.40;3.40;;;;;;;14.13;67.04;99101.99;108046;1307;22929;-44
2023/06/02 09:35:52;;;;;;;9.60;3.50;;;;;;;14.12;67.62;99102.79;108040;1307;22900;-47
2023/06/02 09:38:17;;;;;;;10.90;3.90;;;;;;;14.18;67.88;99102.19;108041;1307;22585;-48
2023/06/02 09:40:43;;;;;;;12.30;3.40;;;;;;;14.25;67.57;99102.56;108013;1307;23262;-48
2023/06/02 09:43:10;;;;;;;10.80;3.30;;;;;;;14.34;67.52;99104.34;108022;1307;22368;-47
2023/06/02 09:46:00;;;;;;;9.80;3.90;;;;;;;14.43;66.92;99107.54;108043;1307;22093;-45
2023/06/02 09:48:27;;;;;;;11.30;4.20;;;;;;;14.33;67.75;99114.66;108029;1307;22371;-47
2023/06/02 09:50:53;;;;;;;12.70;3.90;;;;;;;14.22;68.20;99117.91;107917;1291;22320;-46
2023/06/02 09:53:19;;;;;;;11.80;4.40;;;;;;;14.11;68.95;99122.60;107913;1307;22967;-49
2023/06/02 09:55:47;;;;;;;31.10;4.80;;;;;;;13.97;70.05;99123.98;107863;1307;22368;-46
2023/06/02 09:58:12;;;;;;;20.90;4.80;;;;;;;13.88;70.61;99124.08;108014;1307;22676;-45
2023/06/02 10:00:39;;;;;;;12.10;4.50;;;;;;;13.74;71.32;99123.81;107902;1289;22472;-49
2023/06/02 10:03:06;;;;;;;18.40;5.10;;;;;;;13.65;71.83;99129.40;107946;1307;22665;-43
2023/06/02 10:05:32;;;;;;;10.80;4.80;;;;;;;13.60;71.93;99135.75;107983;1300;22253;-45
2023/06/02 10:08:25;;;;;;;26.60;5.50;;;;;;;13.56;72.41;99129.32;107839;1307;23178;-47
2023/06/02 10:11:21;;;;;;;22.40;5.60;;;;;;;13.70;71.89;99128.89;107989;1302;22222;-46
2023/06/02 10:14:05;;;;;;;16.40;4.80;;;;;;;13.79;71.80;99133.33;107791;1300;22311;-46
2023/06/02 10:16:41;;;;;;;11.80;4.60;;;;;;;13.91;71.49;99136.02;107851;1305;22250;-48
2023/06/02 10:19:52;;;;;;;11.60;4.50;;;;;;;14.05;70.73;99138.93;107890;1302;22447;-47
2023/06/02 10:22:38;;;;;;;9.50;4.00;;;;;;;14.14;70.67;99137.52;107673;1307;23035;-44
2023/06/02 10:25:12;;;;;;;17.40;4.30;;;;;;;14.26;69.99;99139.27;107927;1307;23267;-45
2023/06/02 10:27:40;;;;;;;16.40;4.70;;;;;;;14.30;69.95;99143.43;107963;1307;22237;-48
2023/06/02 10:30:06;;;;;;;14.90;4.40;;;;;;;14.31;70.49;99145.85;107899;1307;22382;-48
2023/06/02 10:32:44;;;;;;;15.60;4.20;;;;;;;14.38;70.17;99150.25;108010;1307;23338;-49
2023/06/02 10:35:09;;;;;;;13.80;4.00;;;;;;;14.45;69.88;99153.14;107941;1307;23033;-50
2023/06/02 10:37:37;;;;;;;10.80;3.90;;;;;;;14.49;69.56;99156.14;107908;1307;22468;-46
2023/06/02 10:40:03;;;;;;;;;;;;;;;14.43;69.66;99152.86;107996;1307;22416;-47
2023/06/02 10:42:30;;;;;;;17.10;4.30;;;;;;;14.40;69.99;99156.84;107897;1307;22247;-49
2023/06/02 10:45:17;;;;;;;10.80;3.80;;;;;;;14.41;70.08;99157.95;107976;1305;22250;-48
2023/06/02 10:47:42;;;;;;;12.00;3.70;;;;;;;14.32;70.35;99164.30;108000;1307;22278;-46
2023/06/02 10:50:14;;;;;;;17.50;4.00;;;;;;;14.24;70.60;99163.46;107770;1307;22331;-46
2023/06/02 10:53:10;;;;;;;22.80;4.60;;;;;;;14.11;71.50;99163.30;107983;1307;22222;-49
2023/06/02 10:55:35;;;;;;;7.80;3.60;;;;;;;14.04;71.73;99161.20;107180;1314;22270;-47
2023/06/02 10:58:03;;;;;;;10.20;3.10;;;;;;;13.99;71.95;99158.50;107212;1314;22386;-49
2023/06/02 11:00:39;;;;;;;6.30;3.30;;;;;;;14.22;71.38;99157.27;107174;1314;23046;-49
2023/06/02 11:03:17;;;;;;;17.80;3.40;;;;;;;14.37;71.05;99159.29;107216;1314;22303;-46
2023/06/02 11:05:43;;;;;;;8.00;3.20;;;;;;;14.59;70.35;99157.72;107206;1307;22223;-45
2023/06/02 11:08:11;;;;;;;9.40;3.50;;;;;;;14.83;70.06;99160.39;107198;1307;22395;-48
2023/06/02 11:10:56;;;;;;;10.10;3.30;;;;;;;15.10;68.90;99166.65;107224;1314;22412;-47
2023/06/02 11:13:25;;;;;;;6.40;3.30;;;;;;;15.06;68.55;99170.84;107215;1314;22289;-45
2023/06/02 11:15:53;;;;;;;13.60;3.40;;;;;;;14.86;69.05;99174.98;107089;1315;22308;-46
2023/06/02 11:18:21;;;;;;;11.90;3.20;;;;;;;14.82;69.17;99178.41;107187;1314;22526;-45
2023/06/02 11:20:49;;;;;;;6.50;3.20;;;;;;;14.67;69.86;99181.87;107218;1311;22260;-46
2023/06/02 11:23:15;;;;;;;5.60;3.00;;;;;;;14.60;69.97;99182.38;107209;1314;22253;-49
2023/06/02 11:25:41;;;;;;;10.50;3.00;;;;;;;14.53;70.17;99185.53;107188;1314;22244;-46
2023/06/02 11:28:17;;;;;;;7.30;3.00;;;;;;;14.48;70.58;99185.55;107230;1308;22368;-44
2023/06/02 11:30:42;;;;;;;10.70;2.80;;;;;;;14.57;70.36;99186.14;107196;1314;22453;-45
2023/06/02 11:33:07;;;;;;;15.20;2.00;;;;;;;14.60;69.95;99191.73;107911;1307;22826;-46
2023/06/02 11:35:34;;;;;;;6.20;2.50;;;;;;;14.49;69.90;99191.27;107941;1307;22259;-48
2023/06/02 11:38:04;;;;;;;5.40;2.70;;;;;;;14.44;70.32;99196.61;108003;1307;23152;-46
2023/06/02 11:40:31;;;;;;;13.40;3.30;;;;;;;14.41;69.85;99200.64;107898;1307;22211;-47
2023/06/02 11:42:56;;;;;;;10.40;2.80;;;;;;;14.32;69.68;99203.26;107966;1307;22271;-47
2023/06/02 11:45:23;;;;;;;11.40;3.40;;;;;;;14.14;70.61;99210.33;107948;1301;22247;-46
2023/06/02 11:47:56;;;;;;;9.80;3.30;;;;;;;14.01;71.09;99212.15;107907;1307;22485;-49
2023/06/02 11:50:22;;;;;;;7.30;2.60;;;;;;;13.83;71.87;99215.52;107859;1308;22375;-48
2023/06/02 11:52:47;;;;;;;9.40;3.10;;;;;;;13.80;71.92;99218.91;107878;1289;22215;-52
2023/06/02 11:55:12;;;;;;;11.20;2.60;;;;;;;13.76;71.91;99220.42;107852;1308;22397;-47
2023/06/02 11:57:38;;;;;;;7.10;3.10;;;;;;;13.66;72.45;99225.85;107938;1307;22253;-46
2023/06/02 12:00:12;;;;;;;9.60;2.90;;;;;;;13.60;73.36;99228.42;107970;1307;22206;-47
2023/06/02 12:02:39;;;;;;;10.20;2.70;;;;;;;13.65;73.26;99228.40;107937;1298;22424;-48
2023/06/02 12:05:07;;;;;;;7.30;2.50;;;;;;;13.59;73.51;99234.08;107941;1305;22402;-47
2023/06/02 12:07:33;;;;;;;16.40;3.00;;;;;;;13.56;73.53;99238.37;107711;1303;22430;-46
2023/06/02 12:09:58;;;;;;;8.60;2.60;;;;;;;13.60;72.82;99242.48;107673;1298;34580;-49
2023/06/02 12:12:23;;;;;;;6.90;2.70;;;;;;;13.55;72.57;99243.34;107515;1303;22440;-50
2023/06/02 12:14:49;;;;;;;14.70;2.60;;;;;;;13.49;72.23;99251.66;107273;1301;22422;-51
2023/06/02 12:17:14;;;;;;;7.90;2.40;;;;;;;13.52;71.65;99253.23;107566;1310;22319;-50
2023/06/02 12:19:40;;;;;;;5.40;2.20;;;;;;;13.50;71.41;99250.94;107492;1311;22330;-46
2023/06/02 12:22:10;;;;;;;15.20;2.40;;;;;;;13.46;71.31;99251.52;107506;1311;22870;-47
2023/06/02 12:24:37;;;;;;;9.00;2.20;;;;;;;13.41;71.43;99252.90;107530;1311;23041;-49
2023/06/02 12:27:03;;;;;;;4.50;1.90;;;;;;;13.26;71.43;99255.00;107531;1311;22288;-46
2023/06/02 12:29:29;;;;;;;7.30;2.50;;;;;;;13.25;71.48;99261.21;107522;1311;22261;-45
2023/06/02 12:32:02;;;;;;;5.90;2.10;;;;;;;13.23;71.15;99261.65;107496;1311;23071;-49
2023/06/02 12:34:29;;;;;;;10.20;3.60;;;;;;;13.32;71.41;99264.27;107524;1311;22144;-45
2023/06/02 12:36:54;;;;;;;11.90;4.90;;;;;;;13.35;71.35;99267.25;107541;1310;22283;-45
2023/06/02 12:39:21;;;;;;;16.00;8.70;;;;;;;13.37;70.81;99266.61;107507;1311;22355;-46
2023/06/02 12:41:46;;;;;;;15.50;11.40;;;;;;;13.43;70.69;99264.79;107508;1303;22259;-46
2023/06/02 12:44:11;;;;;;;23.40;13.50;;;;;;;13.48;70.03;99267.95;107519;1311;23108;-48
2023/06/02 12:46:38;;;;;;;24.50;11.20;;;;;;;13.53;70.09;99266.04;107515;1311;22346;-47
2023/06/02 12:49:04;;;;;;;18.30;8.30;;;;;;;13.62;69.65;99271.58;107539;1311;22243;-50
2023/06/02 12:51:31;;;;;;;16.40;4.10;;;;;;;13.59;69.48;99270.71;107522;1304;22335;-50
2023/06/02 12:53:57;;;;;;;6.60;3.00;;;;;;;13.66;69.35;99270.05;107627;1308;22227;-45
2023/06/02 12:56:22;;;;;;;6.30;2.40;;;;;;;13.69;69.02;99274.60;107654;1310;22249;-47
2023/06/02 12:58:47;;;;;;;3.50;2.40;;;;;;;13.78;68.49;99271.19;107629;1310;23135;-49
2023/06/02 13:01:13;;;;;;;5.30;2.10;;;;;;;13.81;68.00;99267.31;107652;1310;22256;-49
2023/06/02 13:03:38;;;;;;;7.50;1.90;;;;;;;13.87;67.78;99266.56;107653;1310;24192;-47
2023/06/02 13:06:08;;;;;;;13.60;2.20;;;;;;;13.97;67.49;99264.62;107659;1303;23059;-48
2023/06/02 13:08:37;;;;;;;12.80;2.40;;;;;;;13.99;67.11;99266.95;107658;1310;23332;-49
2023/06/02 13:11:02;;;;;;;8.20;2.20;;;;;;;13.98;66.92;99269.11;107602;1311;22247;-46
2023/06/02 13:13:27;;;;;;;6.50;1.90;;;;;;;14.10;66.19;99266.71;107526;1311;22431;-49
2023/06/02 13:15:54;;;;;;;6.30;2.40;;;;;;;14.17;65.05;99267.95;107631;1304;22219;-47
2023/06/02 13:18:19;;;;;;;9.40;2.10;;;;;;;14.17;64.05;99271.86;107635;1310;23097;-47
2023/06/02 13:20:45;;;;;;;5.30;2.00;;;;;;;14.16;63.68;99274.54;107648;1310;23137;-49
2023/06/02 13:23:11;;;;;;;13.60;1.80;;;;;;;14.32;63.92;99276.08;107659;1310;22292;-47
2023/06/02 13:25:37;;;;;;;7.80;2.10;;;;;;;14.42;63.28;99278.17;107665;1304;22412;-45
2023/06/02 13:28:02;;;;;;;5.20;1.50;;;;;;;14.42;61.89;99276.10;107661;1310;22408;-46
2023/06/02 13:30:28;;;;;;;11.90;2.00;;;;;;;14.48;62.05;99274.28;107617;1307;22277;-48
2023/06/02 13:32:54;;;;;;;6.70;1.90;;;;;;;14.58;62.14;99273.02;107540;1311;22246;-48
2023/06/02 13:35:19;;;;;;;11.50;2.20;;;;;;;14.60;61.96;99273.79;107546;1310;22310;-47
2023/06/02 13:37:45;;;;;;;3.30;2.00;;;;;;;14.60;62.61;99274.63;107532;1311;22279;-51
2023/06/02 13:40:10;;;;;;;7.90;2.20;;;;;;;14.68;62.99;99269.10;107528;1310;22940;-45
2023/06/02 13:42:36;;;;;;;10.00;2.00;;;;;;;14.88;62.89;99269.80;107516;1311;23161;-47
2023/06/02 13:45:02;;;;;;;4.90;1.80;;;;;;;14.95;61.84;99276.70;107540;1311;22257;-48
2023/06/02 13:47:28;;;;;;;5.60;2.10;;;;;;;15.10;61.57;99276.11;107539;1310;22206;-44
2023/06/02 13:49:53;;;;;;;9.20;2.40;;;;;;;15.24;61.27;99278.05;107576;1304;22973;-46
2023/06/02 13:52:18;;;;;;;6.10;2.20;;;;;;;15.64;61.51;99275.60;107290;1310;22252;-46
2023/06/02 13:54:44;;;;;;;6.90;2.00;;;;;;;16.09;60.29;99276.23;107603;1304;22399;-47
2023/06/02 13:57:09;;;;;;;5.10;2.20;;;;;;;16.41;59.74;99279.34;107404;1310;22234;-47
2023/06/02 13:59:35;;;;;;;7.60;2.10;;;;;;;16.65;58.61;99268.23;107414;1310;22379;-46
2023/06/02 14:02:01;;;;;;;10.70;2.30;;;;;;;16.93;57.80;99269.75;107667;1310;22248;-46